Minerva Zenia — SYNB — position and weather

sailwx.info

Track history (hours):
 
Tides and Currents Weather Stations Pressure Air Temp Water Temp Dewpoint Dewpoint Depression Visibility Wind Speed Wind Dir Waves Ship Positions

Minerva Zenia

Last reported at 2014-Oct-28 16:08 UTC. Time now 2014-Oct-30 12:14 UTC.
Position N 59°45' E 024°43'.

Length 248 m; draft 8.3 m.

Type: Ship. MMSI: 240014000.

Date/timePositionNaut miles runAvg speedWind from/ knotsBaromVisibWave heightAir tempDewpointWater temp
2014-Oct-28 16:08N 59°45' E 024°43'5 7.4
2014-Oct-28 15:32N 59°44' E 024°35'333 9.0
2014-Oct-27 02:33N 54°60' E 019°13'1010.4
2014-Oct-27 01:33N 54°50' E 019°09'1110.6
2014-Oct-27 00:33N 54°39' E 019°07'1010.1
2014-Oct-26 23:33N 54°30' E 019°01'9 9.4
2014-Oct-26 22:33N 54°25' E 018°47'3 2.5
2014-Oct-26 21:32N 54°24' E 018°43'0 0.0
2014-Oct-26 20:32N 54°24' E 018°43'0 0.0
2014-Oct-26 19:32N 54°24' E 018°43'0 0.0
2014-Oct-26 18:32N 54°24' E 018°43'0 0.0
2014-Oct-26 17:32N 54°24' E 018°43'0 0.0
2014-Oct-26 16:32N 54°24' E 018°43'0 0.0
2014-Oct-26 15:32N 54°24' E 018°43'0 0.0
2014-Oct-26 14:32N 54°24' E 018°43'0 0.0
2014-Oct-26 13:32N 54°24' E 018°43'0 0.0
2014-Oct-26 12:32N 54°24' E 018°43'0 0.0
2014-Oct-26 11:32N 54°24' E 018°43'0 0.0
2014-Oct-26 10:32N 54°24' E 018°43'0 0.0
2014-Oct-26 09:32N 54°24' E 018°43'0 0.0
2014-Oct-26 08:32N 54°24' E 018°43'0 0.0
2014-Oct-26 07:32N 54°24' E 018°43'0 0.0
2014-Oct-26 06:32N 54°24' E 018°43'0 0.0
2014-Oct-26 05:32N 54°24' E 018°43'0 0.0
2014-Oct-26 04:32N 54°24' E 018°43'0 0.0
2014-Oct-26 03:32N 54°24' E 018°43'0 0.0
2014-Oct-26 02:32N 54°24' E 018°43'0 0.0
2014-Oct-26 01:32N 54°24' E 018°43'0 0.0
2014-Oct-26 00:32N 54°24' E 018°43'0 0.0
2014-Oct-25 23:32N 54°24' E 018°43'0 0.0
2014-Oct-25 22:32N 54°24' E 018°43'0 0.0
2014-Oct-25 21:32N 54°24' E 018°43'0 0.0
2014-Oct-25 20:32N 54°24' E 018°43'0 0.0
2014-Oct-25 19:32N 54°24' E 018°43'0 0.0
2014-Oct-25 18:32N 54°24' E 018°43'0 0.0
2014-Oct-25 17:32N 54°24' E 018°43'0 0.0
2014-Oct-25 16:32N 54°24' E 018°43'0 0.0
2014-Oct-25 15:32N 54°24' E 018°43'0 0.0
2014-Oct-25 14:32N 54°24' E 018°43'0 0.0
2014-Oct-25 13:34N 54°24' E 018°43'2 2.0
2014-Oct-25 12:33N 54°25' E 018°46'9 9.2
2014-Oct-25 11:33N 54°30' E 018°59'1111.1
2014-Oct-25 10:34N 54°41' E 019°03'1211.7
2014-Oct-25 09:33N 54°52' E 019°09'1211.5
2014-Oct-25 08:33N 55°03' E 019°15'1211.5
2014-Oct-25 07:30N 55°15' E 019°21'1111.7
2014-Oct-25 06:34N 55°25' E 019°27'27710.6
2014-Oct-24 04:29N 59°36' E 023°08'1212.3
2014-Oct-24 03:33N 59°39' E 023°30'1212.3
2014-Oct-24 02:34N 59°43' E 023°53'7412.3
2014-Oct-23 20:30N 59°59' E 026°18'1111.9
2014-Oct-23 19:33N 60°01' E 026°40'1411.9
2014-Oct-23 18:23N 60°01' E 027°08'1112.3
2014-Oct-23 17:30N 60°06' E 027°27'  
Track history (hours):
 
Tides and Currents Weather Stations Pressure Air Temp Water Temp Dewpoint Dewpoint Depression Visibility Wind Speed Wind Dir Waves Ship Positions

Minerva Zenia

Last reported at 2014-Oct-28 16:08 UTC. Time now 2014-Oct-30 12:14 UTC.
Position N 59°45' E 024°43'.

Length 248 m; draft 8.3 m.

Type: Ship. MMSI: 240014000.

Date/timePositionNaut miles runAvg speedWind from/ knotsBaromVisibWave heightAir tempDewpointWater temp
2014-Oct-28 16:08N 59°45' E 024°43'5 7.4
2014-Oct-28 15:32N 59°44' E 024°35'333 9.0
2014-Oct-27 02:33N 54°60' E 019°13'1010.4
2014-Oct-27 01:33N 54°50' E 019°09'1110.6
2014-Oct-27 00:33N 54°39' E 019°07'1010.1
2014-Oct-26 23:33N 54°30' E 019°01'9 9.4
2014-Oct-26 22:33N 54°25' E 018°47'3 2.5
2014-Oct-26 21:32N 54°24' E 018°43'0 0.0
2014-Oct-26 20:32N 54°24' E 018°43'0 0.0
2014-Oct-26 19:32N 54°24' E 018°43'0 0.0
2014-Oct-26 18:32N 54°24' E 018°43'0 0.0
2014-Oct-26 17:32N 54°24' E 018°43'0 0.0
2014-Oct-26 16:32N 54°24' E 018°43'0 0.0
2014-Oct-26 15:32N 54°24' E 018°43'0 0.0
2014-Oct-26 14:32N 54°24' E 018°43'0 0.0
2014-Oct-26 13:32N 54°24' E 018°43'0 0.0
2014-Oct-26 12:32N 54°24' E 018°43'0 0.0
2014-Oct-26 11:32N 54°24' E 018°43'0 0.0
2014-Oct-26 10:32N 54°24' E 018°43'0 0.0
2014-Oct-26 09:32N 54°24' E 018°43'0 0.0
2014-Oct-26 08:32N 54°24' E 018°43'0 0.0
2014-Oct-26 07:32N 54°24' E 018°43'0 0.0
2014-Oct-26 06:32N 54°24' E 018°43'0 0.0
2014-Oct-26 05:32N 54°24' E 018°43'0 0.0
2014-Oct-26 04:32N 54°24' E 018°43'0 0.0
2014-Oct-26 03:32N 54°24' E 018°43'0 0.0
2014-Oct-26 02:32N 54°24' E 018°43'0 0.0
2014-Oct-26 01:32N 54°24' E 018°43'0 0.0
2014-Oct-26 00:32N 54°24' E 018°43'0 0.0
2014-Oct-25 23:32N 54°24' E 018°43'0 0.0
2014-Oct-25 22:32N 54°24' E 018°43'0 0.0
2014-Oct-25 21:32N 54°24' E 018°43'0 0.0
2014-Oct-25 20:32N 54°24' E 018°43'0 0.0
2014-Oct-25 19:32N 54°24' E 018°43'0 0.0
2014-Oct-25 18:32N 54°24' E 018°43'0 0.0
2014-Oct-25 17:32N 54°24' E 018°43'0 0.0
2014-Oct-25 16:32N 54°24' E 018°43'0 0.0
2014-Oct-25 15:32N 54°24' E 018°43'0 0.0
2014-Oct-25 14:32N 54°24' E 018°43'0 0.0
2014-Oct-25 13:34N 54°24' E 018°43'2 2.0
2014-Oct-25 12:33N 54°25' E 018°46'9 9.2
2014-Oct-25 11:33N 54°30' E 018°59'1111.1
2014-Oct-25 10:34N 54°41' E 019°03'1211.7
2014-Oct-25 09:33N 54°52' E 019°09'1211.5
2014-Oct-25 08:33N 55°03' E 019°15'1211.5
2014-Oct-25 07:30N 55°15' E 019°21'1111.7
2014-Oct-25 06:34N 55°25' E 019°27'27710.6
2014-Oct-24 04:29N 59°36' E 023°08'1212.3
2014-Oct-24 03:33N 59°39' E 023°30'1212.3
2014-Oct-24 02:34N 59°43' E 023°53'7412.3
2014-Oct-23 20:30N 59°59' E 026°18'1111.9
2014-Oct-23 19:33N 60°01' E 026°40'1411.9
2014-Oct-23 18:23N 60°01' E 027°08'1112.3
2014-Oct-23 17:30N 60°06' E 027°27'  

Dump ship's entire track history